Sarnen, Switzerland
Current Conditions -  °F | °C
As of 4:50 AM on Friday 21 Nov 2014 (Local Time) from LSMA Reporting Station
Overcast Overcast  
Wind Chill: 41°   Ceiling: 9800
Heat Index: 41°   Visibility: 2.8mi
Dew Point: 39°   Wind: 0mph
Humidity: 93%   Direction: NA
Pressure: 30.18"   Gusts: NA
Location:  46.91°N, 8.25°E
Report Text: LSMA 210350Z AUTO 00000KT 4600NDV OVC098 05/04 Q1022 RMK GRN
Loading
Personal Weather Stations






























Interactive Weather Map New forecast layout! Learn more

10-Day Weather Forecast

Advertisements
Track Severe Weather on mobile